createdAt,value
2022-11-23T00:01:24.381Z,15.97
2022-11-23T00:03:55.326Z,16.50
2022-11-23T00:06:24.998Z,17.27
2022-11-23T00:08:53.793Z,16.03
2022-11-23T00:11:23.846Z,16.20
2022-11-23T00:13:54.030Z,14.87
2022-11-23T00:16:24.125Z,15.30
2022-11-23T00:18:54.676Z,15.47
2022-11-23T00:21:23.345Z,15.07
2022-11-23T00:23:51.884Z,14.93
2022-11-23T00:26:20.673Z,15.67
2022-11-23T00:28:49.077Z,15.93
2022-11-23T00:31:20.201Z,14.90
2022-11-23T00:33:52.370Z,14.80
2022-11-23T00:36:21.965Z,15.87
2022-11-23T00:38:50.831Z,14.87
2022-11-23T00:41:21.113Z,15.97
2022-11-23T00:43:49.640Z,15.27
2022-11-23T00:46:20.719Z,15.60
2022-11-23T00:48:50.628Z,14.67
2022-11-23T00:51:20.423Z,16.67
2022-11-23T00:53:48.786Z,15.87
2022-11-23T00:56:16.922Z,15.73
2022-11-23T00:58:49.069Z,15.57
2022-11-23T01:01:20.349Z,15.47
2022-11-23T01:03:49.849Z,16.87
2022-11-23T01:06:19.818Z,15.53
2022-11-23T01:08:51.763Z,16.17
2022-11-23T01:11:21.809Z,15.80
2022-11-23T01:13:50.479Z,14.70
2022-11-23T01:16:24.256Z,14.20
2022-11-23T01:18:54.779Z,14.70
2022-11-23T01:21:24.986Z,15.50
2022-11-23T01:23:53.180Z,16.60
2022-11-23T01:26:21.694Z,14.87
2022-11-23T01:28:50.692Z,16.40
2022-11-23T01:31:22.103Z,13.83
2022-11-23T01:33:54.091Z,15.40
2022-11-23T01:36:24.262Z,15.27
2022-11-23T01:38:53.313Z,14.83
2022-11-23T01:41:24.323Z,14.47
2022-11-23T01:43:53.118Z,15.40
2022-11-23T01:46:22.846Z,16.40
2022-11-23T01:48:55.267Z,15.33
2022-11-23T01:51:29.933Z,15.37
2022-11-23T01:54:01.563Z,15.37
2022-11-23T01:56:36.758Z,14.50
2022-11-23T01:59:09.549Z,14.03
2022-11-23T02:01:39.125Z,15.33
2022-11-23T02:04:10.683Z,14.77
2022-11-23T02:06:46.297Z,17.00
2022-11-23T02:09:15.784Z,14.07
2022-11-23T02:11:44.712Z,15.53
2022-11-23T02:14:19.077Z,15.47
2022-11-23T02:16:53.247Z,15.70
2022-11-23T02:19:33.915Z,15.67
2022-11-23T02:22:02.297Z,14.43
2022-11-23T02:24:36.195Z,15.30
2022-11-23T02:27:07.789Z,15.10
2022-11-23T02:29:36.148Z,14.63
2022-11-23T02:32:04.295Z,14.43
2022-11-23T02:34:32.447Z,15.80
2022-11-23T02:37:02.104Z,15.60
2022-11-23T02:39:35.524Z,15.83
2022-11-23T02:42:07.527Z,15.17
2022-11-23T02:44:43.088Z,15.00
2022-11-23T02:47:12.587Z,15.97
2022-11-23T02:49:42.563Z,15.80
2022-11-23T02:52:10.894Z,14.90
2022-11-23T02:54:39.071Z,15.10
2022-11-23T02:57:09.103Z,14.63
2022-11-23T02:59:37.390Z,14.03
2022-11-23T03:02:07.669Z,14.57
2022-11-23T03:04:36.943Z,14.53
2022-11-23T03:07:05.110Z,14.23
2022-11-23T03:09:34.230Z,15.00
2022-11-23T03:12:03.738Z,14.57
2022-11-23T03:14:33.277Z,14.23
2022-11-23T03:17:02.187Z,15.27
2022-11-23T03:19:35.905Z,15.47
2022-11-23T03:22:05.002Z,15.50
2022-11-23T03:24:33.188Z,13.00
2022-11-23T03:27:04.008Z,14.93
2022-11-23T03:29:33.852Z,14.47
2022-11-23T03:32:07.552Z,13.43
2022-11-23T03:34:36.286Z,15.07
2022-11-23T03:37:05.490Z,14.40
2022-11-23T03:39:34.133Z,13.77
2022-11-23T03:42:22.774Z,15.37
2022-11-23T03:44:52.991Z,13.93
2022-11-23T03:47:21.137Z,14.77
2022-11-23T03:49:49.610Z,14.00
2022-11-23T03:52:17.755Z,15.33
2022-11-23T03:54:47.047Z,14.80
2022-11-23T03:57:15.583Z,14.03
2022-11-23T03:59:43.834Z,13.63
2022-11-23T04:02:14.666Z,15.47
2022-11-23T04:04:50.518Z,13.60
2022-11-23T04:07:44.944Z,15.20
2022-11-23T04:10:13.202Z,14.33
2022-11-23T04:13:10.563Z,14.33
2022-11-23T04:15:38.741Z,14.13
2022-11-23T04:18:08.507Z,13.83
2022-11-23T04:20:37.912Z,13.07
2022-11-23T04:23:10.395Z,13.27
2022-11-23T04:25:41.188Z,14.67
2022-11-23T04:28:09.820Z,14.67
2022-11-23T04:30:38.041Z,14.87
2022-11-23T04:33:08.783Z,15.17
2022-11-23T04:35:37.845Z,14.40
2022-11-23T04:38:06.029Z,13.83
2022-11-23T04:40:34.164Z,14.90
2022-11-23T04:43:03.969Z,14.37
2022-11-23T04:45:39.597Z,14.97
2022-11-23T04:48:12.914Z,14.03
2022-11-23T04:50:44.659Z,13.67
2022-11-23T04:53:18.199Z,14.73
2022-11-23T04:55:48.494Z,13.50
2022-11-23T04:58:18.186Z,14.97
2022-11-23T05:00:49.872Z,13.77
2022-11-23T05:03:20.762Z,13.73
2022-11-23T05:05:50.131Z,14.67
2022-11-23T05:08:18.315Z,14.20
2022-11-23T05:11:22.914Z,14.60
2022-11-23T05:13:51.859Z,13.47
2022-11-23T05:16:20.055Z,13.70
2022-11-23T05:18:49.898Z,14.43
2022-11-23T05:21:18.094Z,14.40
2022-11-23T05:23:46.372Z,14.20
2022-11-23T05:26:15.219Z,14.73
2022-11-23T05:28:44.401Z,14.83
2022-11-23T05:31:15.367Z,14.53
2022-11-23T05:33:46.158Z,14.00
2022-11-23T05:36:17.627Z,14.07
2022-11-23T05:38:45.746Z,14.07
2022-11-23T05:41:22.880Z,13.90
2022-11-23T05:43:55.639Z,14.07
2022-11-23T05:46:27.719Z,14.37
2022-11-23T05:48:56.262Z,13.80
2022-11-23T05:51:27.129Z,14.33
2022-11-23T05:53:57.051Z,13.73
2022-11-23T05:56:38.789Z,13.83
2022-11-23T05:59:16.078Z,13.23
2022-11-23T06:01:48.659Z,13.30
2022-11-23T06:04:24.524Z,14.17
2022-11-23T06:06:57.278Z,12.97
2022-11-23T06:09:25.453Z,15.17
2022-11-23T06:11:55.239Z,13.07
2022-11-23T06:14:23.932Z,13.50
2022-11-23T06:16:52.618Z,12.77
2022-11-23T06:19:34.134Z,13.57
2022-11-23T06:22:04.432Z,13.40
2022-11-23T06:24:36.366Z,13.53
2022-11-23T06:27:24.480Z,12.57
2022-11-23T06:29:53.360Z,12.37
2022-11-23T06:32:23.080Z,13.33
2022-11-23T06:34:51.524Z,12.53
2022-11-23T06:37:21.510Z,13.20
2022-11-23T06:39:53.628Z,13.07
2022-11-23T06:42:39.536Z,13.43
2022-11-23T06:45:14.818Z,14.13
2022-11-23T06:47:43.793Z,13.50
2022-11-23T06:50:14.371Z,13.87
2022-11-23T06:52:46.948Z,13.20
2022-11-23T06:55:15.341Z,12.00
2022-11-23T06:57:43.473Z,13.53
2022-11-23T07:00:15.029Z,12.67
2022-11-23T07:02:44.699Z,14.37
2022-11-23T07:05:15.490Z,12.53
2022-11-23T07:07:43.792Z,12.10
2022-11-23T07:10:21.326Z,13.43
2022-11-23T07:12:53.532Z,15.57
2022-11-23T07:15:22.936Z,13.80
2022-11-23T07:17:52.956Z,13.53
2022-11-23T07:20:23.163Z,13.10
2022-11-23T07:23:00.596Z,14.00
2022-11-23T07:25:30.320Z,14.30
2022-11-23T07:27:58.833Z,13.90
2022-11-23T07:30:30.000Z,15.47
2022-11-23T07:33:01.462Z,15.07
2022-11-23T07:35:30.037Z,14.93
2022-11-23T07:37:58.926Z,15.93
2022-11-23T07:40:28.144Z,13.70
2022-11-23T07:43:02.532Z,14.40
2022-11-23T07:45:31.055Z,14.27
2022-11-23T07:48:01.870Z,14.97
2022-11-23T07:50:30.554Z,13.60
2022-11-23T07:52:59.299Z,14.87
2022-11-23T07:55:28.432Z,12.80
2022-11-23T07:57:56.655Z,14.03
2022-11-23T08:00:28.219Z,13.60
2022-11-23T08:03:26.031Z,13.73
2022-11-23T08:05:45.944Z,14.17
2022-11-23T08:08:14.070Z,13.77
2022-11-23T08:10:47.222Z,13.07
2022-11-23T08:13:18.983Z,13.33
2022-11-23T08:15:53.900Z,13.60
2022-11-23T08:18:22.958Z,12.37
2022-11-23T08:20:51.440Z,12.63
2022-11-23T08:23:20.078Z,13.03
2022-11-23T08:25:48.520Z,12.43
2022-11-23T08:28:16.795Z,12.53
2022-11-23T08:30:45.100Z,13.10
2022-11-23T08:33:14.897Z,12.77
2022-11-23T08:35:43.842Z,13.17
2022-11-23T08:38:12.376Z,12.43
2022-11-23T08:40:40.565Z,11.63
2022-11-23T08:43:08.763Z,11.87
2022-11-23T08:45:37.077Z,11.20
2022-11-23T08:48:05.998Z,12.07
2022-11-23T08:50:37.060Z,12.33
2022-11-23T08:53:05.614Z,12.43
2022-11-23T08:55:33.767Z,12.50
2022-11-23T08:58:01.924Z,12.40
2022-11-23T09:00:30.278Z,12.60
2022-11-23T09:02:58.864Z,13.37
2022-11-23T09:05:27.571Z,12.40
2022-11-23T09:07:57.165Z,11.10
2022-11-23T09:10:25.263Z,11.67
2022-11-23T09:12:53.656Z,12.10
2022-11-23T09:15:22.458Z,11.67
2022-11-23T09:17:50.653Z,11.53
2022-11-23T09:20:19.096Z,11.47
2022-11-23T09:22:52.205Z,12.73
2022-11-23T09:25:21.870Z,11.13
2022-11-23T09:27:50.745Z,12.57
2022-11-23T09:30:19.177Z,11.40
2022-11-23T09:32:47.295Z,11.30
2022-11-23T09:35:15.564Z,11.10
2022-11-23T09:37:43.672Z,11.07
2022-11-23T09:40:17.142Z,11.27
2022-11-23T09:42:58.475Z,10.57
2022-11-23T09:45:35.701Z,11.53
2022-11-23T09:48:35.793Z,11.00
2022-11-23T09:51:12.818Z,11.77
2022-11-23T09:53:46.631Z,11.80
2022-11-23T09:56:22.395Z,10.83
2022-11-23T09:58:56.224Z,11.90
2022-11-23T10:01:24.853Z,11.37
2022-11-23T10:03:53.032Z,10.27
2022-11-23T10:06:25.336Z,9.73
2022-11-23T10:09:13.675Z,10.70
2022-11-23T10:12:13.947Z,11.07
2022-11-23T10:14:56.137Z,9.93
2022-11-23T10:17:31.901Z,10.43
2022-11-23T10:20:19.122Z,10.40
2022-11-23T10:22:55.864Z,9.60
2022-11-23T10:25:25.585Z,10.90
2022-11-23T10:28:02.955Z,9.90
2022-11-23T10:30:32.609Z,9.73
2022-11-23T10:33:06.379Z,9.67
2022-11-23T10:35:38.205Z,10.07
2022-11-23T10:38:18.812Z,10.27
2022-11-23T10:40:56.420Z,10.50
2022-11-23T10:43:27.122Z,10.07
2022-11-23T10:46:24.416Z,10.13
2022-11-23T10:48:53.381Z,9.47
2022-11-23T10:51:29.095Z,9.67
2022-11-23T10:54:04.980Z,9.60
2022-11-23T10:56:35.106Z,9.37
2022-11-23T10:59:03.242Z,9.60
2022-11-23T11:01:32.826Z,9.40
2022-11-23T11:04:04.909Z,10.40
2022-11-23T11:06:36.079Z,10.70
2022-11-23T11:09:10.832Z,10.83
2022-11-23T11:11:47.718Z,9.97
2022-11-23T11:14:18.171Z,9.77
2022-11-23T11:16:51.873Z,9.63
2022-11-23T11:19:27.886Z,10.30
2022-11-23T11:21:56.917Z,9.63
2022-11-23T11:24:32.492Z,8.87
2022-11-23T11:27:03.380Z,9.63
2022-11-23T11:29:39.122Z,9.20
2022-11-23T11:32:14.992Z,10.57
2022-11-23T11:34:48.809Z,9.73
2022-11-23T11:37:25.816Z,8.70
2022-11-23T11:39:57.777Z,11.00
2022-11-23T11:42:35.254Z,10.70
2022-11-23T11:45:07.479Z,8.93
2022-11-23T11:47:41.250Z,10.17
2022-11-23T11:50:21.150Z,9.57
2022-11-23T11:52:52.632Z,9.23
2022-11-23T11:55:24.942Z,9.20
2022-11-23T11:57:56.996Z,9.07
2022-11-23T12:00:25.362Z,9.00
2022-11-23T12:03:05.410Z,8.97
2022-11-23T12:05:41.180Z,8.80
2022-11-23T12:08:14.641Z,9.27
2022-11-23T12:10:48.133Z,9.30
2022-11-23T12:13:18.457Z,9.20
2022-11-23T12:15:50.512Z,9.20
2022-11-23T12:18:52.471Z,9.17
2022-11-23T12:21:48.999Z,8.83
2022-11-23T12:24:29.756Z,9.23
2022-11-23T12:27:04.225Z,8.60
2022-11-23T12:29:54.434Z,9.07
2022-11-23T12:32:31.581Z,9.03
2022-11-23T12:35:30.965Z,9.07
2022-11-23T12:38:12.252Z,9.23
2022-11-23T12:41:15.430Z,9.40
2022-11-23T12:43:55.825Z,8.90
2022-11-23T12:46:31.522Z,8.33
2022-11-23T12:49:11.467Z,9.33
2022-11-23T12:51:52.020Z,8.60
2022-11-23T12:54:35.182Z,8.83
2022-11-23T12:57:13.884Z,8.80
2022-11-23T12:59:47.769Z,8.63
2022-11-23T13:02:37.795Z,8.40
2022-11-23T13:05:26.515Z,8.57
2022-11-23T13:08:12.544Z,9.00
2022-11-23T13:10:54.381Z,9.20
2022-11-23T13:13:34.951Z,8.93
2022-11-23T13:16:35.358Z,8.00
2022-11-23T13:19:23.219Z,9.87
2022-11-23T13:21:51.661Z,8.27
2022-11-23T13:24:29.025Z,8.00
2022-11-23T13:27:34.403Z,8.27
2022-11-23T13:30:11.082Z,9.30
2022-11-23T13:32:54.411Z,8.20
2022-11-23T13:35:57.188Z,7.87
2022-11-23T13:38:40.047Z,7.73
2022-11-23T13:41:50.679Z,7.47
2022-11-23T13:44:23.430Z,7.93
2022-11-23T13:47:03.366Z,8.40
2022-11-23T13:49:35.236Z,8.00
2022-11-23T13:52:22.587Z,8.00
2022-11-23T13:55:08.630Z,8.43
2022-11-23T13:57:38.374Z,8.00
2022-11-23T14:00:43.940Z,8.33
2022-11-23T14:03:48.917Z,9.03
2022-11-23T14:06:37.020Z,7.97
2022-11-23T14:09:11.422Z,8.17
2022-11-23T14:11:51.688Z,6.80
2022-11-23T14:14:24.313Z,6.67
2022-11-23T14:17:15.931Z,7.63
2022-11-23T14:20:03.130Z,7.53
2022-11-23T14:22:46.455Z,8.80
2022-11-23T14:25:27.898Z,7.53
2022-11-23T14:28:04.798Z,8.30
2022-11-23T14:31:00.123Z,7.83
2022-11-23T14:33:36.080Z,8.93
2022-11-23T14:36:25.638Z,8.80
2022-11-23T14:39:05.644Z,8.13
2022-11-23T14:41:36.257Z,10.07
2022-11-23T14:44:06.389Z,9.83
2022-11-23T14:46:34.521Z,9.83
2022-11-23T14:49:07.371Z,12.30
2022-11-23T14:51:40.623Z,11.70
2022-11-23T14:54:11.208Z,21.07
2022-11-23T14:56:43.819Z,19.50
2022-11-23T14:59:22.238Z,13.53
2022-11-23T15:01:53.411Z,9.97
2022-11-23T15:04:27.205Z,10.00
2022-11-23T15:07:01.510Z,9.13
2022-11-23T15:09:42.384Z,9.63
2022-11-23T15:12:22.890Z,9.90
2022-11-23T15:14:51.712Z,9.93
2022-11-23T15:17:21.225Z,9.07
2022-11-23T15:19:57.108Z,10.43
2022-11-23T15:22:28.215Z,10.53
2022-11-23T15:25:06.487Z,10.60
2022-11-23T15:27:34.591Z,10.70
2022-11-23T15:30:03.003Z,10.57
2022-11-23T15:32:34.666Z,9.07
2022-11-23T15:35:07.791Z,10.30
2022-11-23T15:37:44.867Z,10.00
2022-11-23T15:40:15.528Z,9.47
2022-11-23T15:42:44.532Z,9.80
2022-11-23T15:45:35.017Z,9.00
2022-11-23T15:48:04.920Z,9.50
2022-11-23T15:50:34.403Z,8.77
2022-11-23T15:53:04.256Z,9.40
2022-11-23T15:55:32.464Z,9.93
2022-11-23T15:58:03.615Z,9.87
2022-11-23T16:00:32.268Z,8.87
2022-11-23T16:03:21.971Z,10.07
2022-11-23T16:06:17.272Z,10.53
2022-11-23T16:08:47.121Z,10.20
2022-11-23T16:11:30.816Z,10.77
2022-11-23T16:14:13.254Z,9.87
2022-11-23T16:16:45.859Z,9.57
2022-11-23T16:19:26.692Z,10.10
2022-11-23T16:22:02.271Z,9.57
2022-11-23T16:24:34.469Z,10.67
2022-11-23T16:27:03.293Z,10.33
2022-11-23T16:29:36.761Z,12.07
2022-11-23T16:32:07.253Z,11.27
2022-11-23T16:34:35.798Z,11.50
2022-11-23T16:37:05.011Z,12.40
2022-11-23T16:39:34.943Z,11.30
2022-11-23T16:42:03.714Z,12.53
2022-11-23T16:44:35.088Z,10.60
2022-11-23T16:47:24.868Z,11.93
2022-11-23T16:49:54.120Z,11.87
2022-11-23T16:52:23.038Z,12.63
2022-11-23T16:54:53.585Z,12.00
2022-11-23T16:57:28.199Z,12.73
2022-11-23T16:59:56.963Z,12.00
2022-11-23T17:02:25.216Z,13.83
2022-11-23T17:04:53.541Z,12.93
2022-11-23T17:07:21.791Z,12.00
2022-11-23T17:09:49.981Z,13.57
2022-11-23T17:12:21.378Z,13.57
2022-11-23T17:14:50.599Z,13.70
2022-11-23T17:17:22.007Z,13.83
2022-11-23T17:19:51.055Z,13.87
2022-11-23T17:22:20.155Z,14.97
2022-11-23T17:24:49.138Z,14.87
2022-11-23T17:27:21.696Z,14.63
2022-11-23T17:29:55.174Z,14.43
2022-11-23T17:32:23.326Z,13.97
2022-11-23T17:34:51.474Z,13.67
2022-11-23T17:37:21.987Z,13.27
2022-11-23T17:39:50.930Z,13.80
2022-11-23T17:42:20.609Z,14.33
2022-11-23T17:44:48.775Z,13.77
2022-11-23T17:47:22.183Z,14.23
2022-11-23T17:49:50.422Z,14.23
2022-11-23T17:52:18.729Z,14.83
2022-11-23T17:54:49.569Z,15.37
2022-11-23T17:57:23.006Z,14.53
2022-11-23T17:59:51.534Z,15.13
2022-11-23T18:02:20.001Z,15.20
2022-11-23T18:04:48.530Z,16.13
2022-11-23T18:07:18.575Z,15.27
2022-11-23T18:09:46.853Z,16.17
2022-11-23T18:12:15.439Z,16.47
2022-11-23T18:14:44.922Z,16.67
2022-11-23T18:17:13.019Z,16.67
2022-11-23T18:19:41.510Z,17.30
2022-11-23T18:22:11.131Z,17.53
2022-11-23T18:24:39.523Z,16.60
2022-11-23T18:27:08.164Z,15.70
2022-11-23T18:29:37.751Z,16.63
2022-11-23T18:32:08.335Z,16.33
2022-11-23T18:34:36.529Z,16.80
2022-11-23T18:37:04.702Z,15.60
2022-11-23T18:39:33.054Z,17.23
2022-11-23T18:42:05.554Z,17.10
2022-11-23T18:44:34.395Z,16.03
2022-11-23T18:47:02.533Z,16.90
2022-11-23T18:49:32.399Z,16.97
2022-11-23T18:52:00.841Z,18.60
2022-11-23T18:54:28.959Z,17.40
2022-11-23T18:56:57.095Z,16.47
2022-11-23T19:02:13.618Z,17.53
2022-11-23T19:04:43.167Z,16.33
2022-11-23T19:07:11.420Z,16.30
2022-11-23T19:09:39.813Z,18.50
2022-11-23T19:12:08.836Z,16.57
2022-11-23T19:14:37.065Z,17.17
2022-11-23T19:17:05.229Z,16.97
2022-11-23T19:19:33.673Z,18.37
2022-11-23T19:22:03.243Z,17.43
2022-11-23T19:24:31.595Z,19.27
2022-11-23T19:26:59.771Z,17.60
2022-11-23T19:29:28.566Z,19.07
2022-11-23T19:31:56.703Z,17.10
2022-11-23T19:34:24.872Z,17.83
2022-11-23T19:36:53.054Z,16.70
2022-11-23T19:39:22.559Z,17.40
2022-11-23T19:41:50.687Z,18.00
2022-11-23T19:44:18.876Z,17.13
2022-11-23T19:46:47.020Z,18.73
2022-11-23T19:49:15.221Z,18.50
2022-11-23T19:51:43.425Z,20.33
2022-11-23T19:54:11.498Z,17.60
2022-11-23T19:56:41.036Z,17.47
2022-11-23T19:59:09.567Z,17.87
2022-11-23T20:01:38.713Z,17.90
2022-11-23T20:04:09.662Z,20.87
2022-11-23T20:06:39.297Z,19.03
2022-11-23T20:09:09.340Z,18.53
2022-11-23T20:11:41.022Z,17.70
2022-11-23T20:14:11.604Z,17.40
2022-11-23T20:16:40.307Z,16.97
2022-11-23T20:19:09.881Z,18.10
2022-11-23T20:21:39.266Z,17.17
2022-11-23T20:24:10.777Z,17.67
2022-11-23T20:26:41.530Z,16.90
2022-11-23T20:29:10.675Z,17.60
2022-11-23T20:31:39.396Z,18.10
2022-11-23T20:34:09.963Z,17.03
2022-11-23T20:36:40.512Z,18.60
2022-11-23T20:39:16.042Z,19.07
2022-11-23T20:41:45.889Z,18.83
2022-11-23T20:44:15.227Z,18.17
2022-11-23T20:49:35.145Z,18.13
2022-11-23T20:52:03.622Z,18.53
2022-11-23T20:54:32.333Z,18.87
2022-11-23T20:57:02.171Z,18.27
2022-11-23T20:59:32.551Z,19.00
2022-11-23T21:02:01.014Z,18.60
2022-11-23T21:04:29.303Z,17.87
2022-11-23T21:06:57.395Z,19.67
2022-11-23T21:09:25.487Z,20.23
2022-11-23T21:12:11.285Z,19.93
2022-11-23T21:14:40.926Z,20.33
2022-11-23T21:17:09.656Z,20.63
2022-11-23T21:19:39.163Z,19.57
2022-11-23T21:22:10.002Z,20.43
2022-11-23T21:24:38.390Z,19.67
2022-11-23T21:27:08.003Z,19.77
2022-11-23T21:29:36.154Z,20.73
2022-11-23T21:32:06.524Z,21.17
2022-11-23T21:34:34.939Z,20.80
2022-11-23T21:37:03.247Z,20.43
2022-11-23T21:39:32.992Z,20.30
2022-11-23T21:42:04.409Z,20.87
2022-11-23T21:44:32.974Z,20.37
2022-11-23T21:47:01.357Z,21.40
2022-11-23T21:49:30.838Z,22.67
2022-11-23T21:51:58.955Z,22.30
2022-11-23T21:54:27.077Z,21.30
2022-11-23T21:56:55.573Z,20.07
2022-11-23T21:59:24.697Z,20.87
2022-11-23T22:01:57.101Z,20.90
2022-11-23T22:04:25.709Z,20.80
2022-11-23T22:06:55.476Z,22.37
2022-11-23T22:09:23.839Z,23.03
2022-11-23T22:11:54.469Z,23.10
2022-11-23T22:14:22.809Z,22.57
2022-11-23T22:16:53.642Z,23.00
2022-11-23T22:19:21.951Z,23.83
2022-11-23T22:21:50.276Z,23.30
2022-11-23T22:24:21.167Z,22.93
2022-11-23T22:26:49.874Z,23.70
2022-11-23T22:29:18.213Z,23.20
2022-11-23T22:31:46.694Z,22.30
2022-11-23T22:34:15.848Z,23.27
2022-11-23T22:36:44.430Z,23.70
2022-11-23T22:39:12.806Z,23.10
2022-11-23T22:41:42.823Z,23.47
2022-11-23T22:44:11.739Z,22.70
2022-11-23T22:46:40.903Z,24.07
2022-11-23T22:49:09.454Z,21.70
2022-11-23T22:51:37.850Z,22.90
2022-11-23T22:54:06.418Z,21.33
2022-11-23T22:56:34.959Z,21.27
2022-11-23T22:59:05.684Z,20.87
2022-11-23T23:01:34.202Z,22.80
2022-11-23T23:04:04.389Z,22.70
2022-11-23T23:06:35.025Z,23.00
2022-11-23T23:09:05.132Z,23.53
2022-11-23T23:11:34.300Z,22.70
2022-11-23T23:14:04.075Z,23.17
2022-11-23T23:16:32.589Z,23.40
2022-11-23T23:19:03.708Z,21.50
2022-11-23T23:21:32.177Z,22.50
2022-11-23T23:24:02.138Z,24.80
2022-11-23T23:26:33.382Z,22.80
2022-11-23T23:29:02.049Z,21.83
2022-11-23T23:31:31.733Z,24.50
2022-11-23T23:34:01.076Z,23.20
2022-11-23T23:36:29.604Z,23.20
2022-11-23T23:38:58.576Z,22.10
2022-11-23T23:41:26.911Z,23.53
2022-11-23T23:43:55.260Z,22.33
2022-11-23T23:46:23.873Z,22.93
2022-11-23T23:48:56.383Z,22.33
2022-11-23T23:51:25.509Z,23.27
2022-11-23T23:53:54.082Z,21.83
2022-11-23T23:56:24.073Z,23.63
2022-11-23T23:58:52.725Z,24.10
